West Coast Vancouver Island South: Past 24 Hour Conditions

 

Bella Bella Airport

06:00 AM PDT 19 April 2014
This table is a summary of hourly weather conditions for the past 24 hours.
Date / Time
(PDT)
Wind(knots) Conditions Visibility(km) Pressure(kPa) Air tempC) Relative humidity(%) Dew pointC)
19 April 2014
6:00 SE 10 gust 15 Cloudy 16 100.2 8 74 3
5:00 ESE 4 Light Rain 16 100.3 7 77 3
4:00 ENE 5 Cloudy 16 100.4 7 80 4
3:00 SSE 13 gust 24 Rain 6 100.6 6 83 4
2:00 SE 12 Light Rain 16 100.7 9 66 3
1:00 SSE 5 Cloudy 16 100.7 7 85 5
0:00 ESE 4 Cloudy 16 100.8 6 96 6
18 April 2014
23:00 SE 7 Cloudy 16 101.0 7 93 6
22:00 SE 2 Mist 8 101.1 7 96 6
21:00 E 3 Light Rain 16 101.2 7 95 6
20:00 ESE 3 Light Rain 16 101.3 8 88 6
19:00 S 5 Light Rain 16 101.3 8 87 6
18:00 S 8 Light Rain 16 101.4 10 70 4
17:00 SSE 10 Mostly Cloudy 16 101.5 12 55 3
16:00 SSE 9 gust 15 Mostly Cloudy 16 101.6 11 59 3
15:00 SSE 11 Cloudy 16 101.6 10 66 4
14:00 SSE 13 gust 19 Light Rain 16 101.6 10 65 3
13:00 S 10 Cloudy 16 101.6 10 58 2
12:00 S 7 Cloudy 16 101.6 10 61 2
11:00 S 9 Cloudy 16 101.6 9 65 3
10:00 SE 5 Mostly Cloudy 16 101.6 8 75 3
9:00 SE 6 Mainly Sunny 16 101.6 7 88 5
8:00 SSE 4 Cloudy 16 101.6 5 100 5
7:00 S 4 Mostly Cloudy 15 101.6 3 100 3
6:00 SSE 3 Mist 8 101.5 2 100 2
 
Map of Pacific - South Coast marine weather areas Tsawwassen Ferry Terminal South Nomad - 46036 Sentry Shoal - 46131 South Brooks - 46132 Halibut Bank - 46146 South Moresby - 46147 South Hecate Strait - 46185 West Sea Otter - 46204 La Perouse Bank - 46206 East Dellwood - 46207 Discovery Island Esquimalt Harbour Kelp Reefs Malahat Race Rocks Lightstation Saturna Island Sheringham Point University of Victoria Victoria Gonzales Victoria Int'l Airport Ballenas Islands Campbell River Airport Comox Airport Entrance Island Fanny Island Nanaimo Airport Port Hardy Airport Sisters Islets Estevan Point Sartine Island Solander Island Tofino Airport Grief Point Powell River Airport Sechelt Cape St.James Bella Bella Airport Bella Coola Airport Cathedral Point Herbert Island Point Atkinson Sand Heads Lightstation Vancouver Harbour Vancouver Int'l Airport West Vancouver Port Alberni Howe Sound - Pam Rocks Squamish Airport